createdAt,value
2022-08-04T00:01:47.825Z,1.60
2022-08-04T00:04:33.712Z,2.03
2022-08-04T00:07:18.193Z,1.58
2022-08-04T00:10:02.473Z,1.80
2022-08-04T00:12:48.276Z,1.70
2022-08-04T00:15:33.022Z,1.80
2022-08-04T00:18:18.540Z,1.75
2022-08-04T00:21:05.498Z,1.90
2022-08-04T00:24:11.655Z,1.73
2022-08-04T00:26:54.051Z,1.67
2022-08-04T00:29:39.118Z,1.65
2022-08-04T00:32:33.961Z,2.05
2022-08-04T00:35:18.974Z,1.80
2022-08-04T00:38:01.681Z,1.50
2022-08-04T00:40:49.068Z,1.50
2022-08-04T00:43:33.233Z,2.17
2022-08-04T00:46:29.873Z,2.05
2022-08-04T00:51:38.891Z,2.35
2022-08-04T00:54:27.897Z,2.10
2022-08-04T00:57:33.656Z,1.80
2022-08-04T01:00:17.784Z,1.98
2022-08-04T01:03:11.081Z,1.95
2022-08-04T01:06:10.872Z,2.28
2022-08-04T01:09:03.134Z,2.22
2022-08-04T01:11:56.452Z,2.67
2022-08-04T01:14:48.563Z,2.63
2022-08-04T01:17:37.416Z,2.63
2022-08-04T01:20:22.330Z,1.92
2022-08-04T01:23:19.576Z,2.10
2022-08-04T01:26:43.523Z,1.83
2022-08-04T01:29:29.290Z,2.47
2022-08-04T01:32:27.395Z,2.67
2022-08-04T01:35:15.445Z,2.75
2022-08-04T01:38:18.381Z,2.85
2022-08-04T01:41:05.321Z,2.65
2022-08-04T01:43:48.147Z,2.45
2022-08-04T01:46:34.843Z,2.55
2022-08-04T01:49:18.071Z,2.30
2022-08-04T01:52:00.900Z,2.40
2022-08-04T01:54:44.682Z,1.92
2022-08-04T01:57:38.270Z,1.50
2022-08-04T02:00:23.167Z,1.40
2022-08-04T02:03:07.260Z,1.42
2022-08-04T02:06:02.948Z,1.35
2022-08-04T02:08:52.508Z,1.23
2022-08-04T02:11:35.276Z,1.02
2022-08-04T02:14:35.781Z,1.40
2022-08-04T02:17:23.787Z,1.38
2022-08-04T02:20:09.532Z,1.52
2022-08-04T02:22:54.626Z,1.40
2022-08-04T02:25:40.471Z,1.70
2022-08-04T02:28:24.068Z,1.60
2022-08-04T02:31:20.422Z,2.10
2022-08-04T02:34:07.324Z,1.90
2022-08-04T02:36:52.380Z,1.70
2022-08-04T02:39:47.926Z,2.03
2022-08-04T02:42:31.407Z,1.58
2022-08-04T02:45:14.207Z,1.73
2022-08-04T02:48:30.557Z,1.65
2022-08-04T02:51:02.182Z,2.20
2022-08-04T02:53:55.354Z,1.88
2022-08-04T02:56:38.861Z,1.80
2022-08-04T02:59:24.459Z,1.65
2022-08-04T03:02:07.077Z,1.90
2022-08-04T03:04:54.194Z,1.35
2022-08-04T03:08:03.635Z,1.60
2022-08-04T03:11:00.525Z,1.60
2022-08-04T03:14:09.524Z,1.23
2022-08-04T03:17:01.989Z,1.33
2022-08-04T03:19:57.628Z,1.50
2022-08-04T03:23:11.971Z,1.75
2022-08-04T03:26:14.565Z,1.52
2022-08-04T03:29:09.305Z,2.00
2022-08-04T03:32:14.078Z,2.20
2022-08-04T03:35:04.936Z,2.08
2022-08-04T03:38:04.120Z,2.33
2022-08-04T03:41:03.713Z,2.00
2022-08-04T03:44:05.359Z,1.90
2022-08-04T03:47:01.769Z,1.75
2022-08-04T03:49:57.938Z,2.30
2022-08-04T03:53:11.521Z,2.00
2022-08-04T03:56:09.974Z,2.13
2022-08-04T03:59:09.416Z,1.92
2022-08-04T04:02:06.739Z,2.10
2022-08-04T04:05:10.420Z,1.60
2022-08-04T04:08:18.670Z,1.95
2022-08-04T04:11:24.385Z,2.10
2022-08-04T04:14:12.869Z,1.92
2022-08-04T04:17:15.367Z,1.85
2022-08-04T04:20:14.140Z,1.90
2022-08-04T04:23:11.707Z,2.10
2022-08-04T04:26:02.746Z,1.60
2022-08-04T04:28:52.837Z,1.88
2022-08-04T04:31:44.616Z,2.00
2022-08-04T04:34:45.672Z,2.08
2022-08-04T04:37:38.877Z,1.88
2022-08-04T04:40:35.459Z,1.90
2022-08-04T04:43:50.431Z,1.90
2022-08-04T04:46:38.671Z,1.95
2022-08-04T04:49:26.878Z,1.60
2022-08-04T04:52:22.860Z,2.03
2022-08-04T04:55:11.307Z,1.70
2022-08-04T04:57:55.367Z,1.63
2022-08-04T05:00:47.103Z,1.70
2022-08-04T05:03:40.945Z,1.67
2022-08-04T05:06:38.626Z,1.65
2022-08-04T05:09:28.857Z,1.58
2022-08-04T05:14:32.367Z,1.60
2022-08-04T05:15:35.270Z,1.70
2022-08-04T05:18:22.510Z,1.48
2022-08-04T05:21:11.115Z,1.60
2022-08-04T05:23:57.773Z,1.40
2022-08-04T05:26:42.981Z,1.42
2022-08-04T05:29:31.779Z,1.80
2022-08-04T05:32:16.078Z,1.30
2022-08-04T05:35:01.460Z,1.50
2022-08-04T05:37:45.657Z,1.35
2022-08-04T05:40:44.683Z,1.50
2022-08-04T05:43:28.845Z,1.30
2022-08-04T05:46:12.552Z,1.38
2022-08-04T05:48:55.505Z,1.65
2022-08-04T05:51:38.906Z,1.35
2022-08-04T05:54:22.522Z,1.50
2022-08-04T05:57:06.057Z,1.52
2022-08-04T05:59:50.690Z,1.50
2022-08-04T06:02:34.368Z,1.50
2022-08-04T06:05:17.845Z,1.42
2022-08-04T06:08:12.332Z,1.60
2022-08-04T06:10:58.161Z,1.50
2022-08-04T06:13:48.996Z,1.30
2022-08-04T06:16:36.956Z,1.63
2022-08-04T06:20:02.865Z,1.50
2022-08-04T06:22:24.259Z,1.40
2022-08-04T06:25:09.368Z,1.55
2022-08-04T06:27:52.713Z,1.30
2022-08-04T06:30:35.609Z,1.40
2022-08-04T06:33:27.493Z,1.60
2022-08-04T06:36:12.264Z,1.58
2022-08-04T06:38:58.300Z,1.73
2022-08-04T06:42:14.934Z,1.70
2022-08-04T06:44:45.478Z,1.48
2022-08-04T06:47:28.535Z,1.50
2022-08-04T06:51:30.845Z,1.60
2022-08-04T06:53:16.006Z,1.60
2022-08-04T06:56:00.237Z,1.42
2022-08-04T06:58:43.511Z,2.15
2022-08-04T07:01:26.825Z,1.40
2022-08-04T07:04:09.821Z,1.35
2022-08-04T07:06:54.372Z,1.20
2022-08-04T07:09:37.154Z,1.40
2022-08-04T07:12:21.614Z,1.63
2022-08-04T07:15:04.555Z,1.77
2022-08-04T07:17:51.987Z,1.75
2022-08-04T07:20:36.761Z,1.70
2022-08-04T07:23:25.067Z,1.20
2022-08-04T07:26:12.867Z,1.48
2022-08-04T07:28:56.839Z,1.60
2022-08-04T07:31:39.803Z,1.83
2022-08-04T07:34:23.500Z,1.33
2022-08-04T07:37:06.465Z,1.55
2022-08-04T07:39:50.702Z,1.60
2022-08-04T07:42:33.740Z,1.70
2022-08-04T07:45:18.946Z,0.63
2022-08-04T07:48:05.155Z,0.22
2022-08-04T07:50:48.642Z,0.40
2022-08-04T07:53:53.955Z,0.40
2022-08-04T07:56:36.457Z,0.20
2022-08-04T07:59:19.742Z,0.30
2022-08-04T08:02:03.909Z,0.30
2022-08-04T08:04:47.957Z,0.20
2022-08-04T08:07:30.713Z,0.20
2022-08-04T08:10:13.702Z,0.30
2022-08-04T08:12:58.301Z,0.30
2022-08-04T08:15:41.309Z,0.20
2022-08-04T08:18:24.043Z,0.30
2022-08-04T08:21:09.757Z,0.20
2022-08-04T08:23:52.501Z,0.20
2022-08-04T08:26:36.336Z,0.30
2022-08-04T08:29:20.894Z,0.22
2022-08-04T08:32:08.293Z,0.30
2022-08-04T08:34:51.755Z,0.20
2022-08-04T08:37:40.293Z,0.32
2022-08-04T08:40:40.870Z,0.30
2022-08-04T08:44:04.747Z,0.20
2022-08-04T08:46:50.846Z,0.22
2022-08-04T08:50:01.992Z,0.20
2022-08-04T08:53:01.528Z,0.20
2022-08-04T08:55:50.846Z,0.20
2022-08-04T08:58:42.551Z,0.30
2022-08-04T09:01:35.451Z,0.20
2022-08-04T09:04:39.261Z,0.20
2022-08-04T09:07:34.262Z,0.28
2022-08-04T09:10:20.015Z,0.10
2022-08-04T09:13:05.335Z,0.20
2022-08-04T09:15:54.183Z,0.30
2022-08-04T09:18:38.752Z,0.20
2022-08-04T09:21:25.309Z,0.20
2022-08-04T09:24:36.625Z,0.20
2022-08-04T09:27:16.813Z,0.20
2022-08-04T09:30:04.332Z,0.25
2022-08-04T09:32:49.807Z,0.30
2022-08-04T09:35:38.512Z,0.20
2022-08-04T09:38:26.415Z,0.22
2022-08-04T09:41:49.293Z,0.15
2022-08-04T09:44:50.770Z,0.30
2022-08-04T09:47:39.412Z,0.25
2022-08-04T09:50:30.934Z,0.20
2022-08-04T09:53:31.829Z,0.13
2022-08-04T09:56:20.719Z,0.30
2022-08-04T09:59:09.326Z,0.20
2022-08-04T10:01:59.735Z,0.20
2022-08-04T10:04:43.903Z,0.20
2022-08-04T10:07:59.570Z,0.20
2022-08-04T10:10:53.389Z,0.20
2022-08-04T10:13:48.738Z,0.30
2022-08-04T10:16:36.740Z,0.40
2022-08-04T10:19:25.488Z,0.20
2022-08-04T10:22:28.219Z,0.30
2022-08-04T10:25:40.425Z,0.85
2022-08-04T10:28:22.501Z,1.30
2022-08-04T10:31:10.935Z,1.48
2022-08-04T10:33:55.639Z,1.50
2022-08-04T10:36:42.380Z,1.40
2022-08-04T10:39:41.886Z,1.25
2022-08-04T10:42:28.513Z,1.25
2022-08-04T10:45:15.171Z,0.90
2022-08-04T10:48:01.298Z,1.33
2022-08-04T10:50:54.193Z,1.65
2022-08-04T10:53:40.561Z,1.67
2022-08-04T10:56:30.177Z,1.50
2022-08-04T10:59:16.748Z,1.65
2022-08-04T11:02:03.894Z,1.48
2022-08-04T11:04:49.664Z,1.80
2022-08-04T11:07:34.331Z,1.33
2022-08-04T11:10:19.089Z,1.88
2022-08-04T11:13:06.072Z,1.60
2022-08-04T11:15:51.259Z,1.77
2022-08-04T11:18:36.643Z,1.48
2022-08-04T11:21:21.908Z,0.90
2022-08-04T11:24:06.481Z,0.40
2022-08-04T11:26:50.583Z,0.20
2022-08-04T11:29:36.089Z,1.50
2022-08-04T11:32:21.070Z,1.90
2022-08-04T11:35:06.334Z,1.50
2022-08-04T11:37:51.665Z,1.70
2022-08-04T11:40:38.111Z,1.60
2022-08-04T11:44:00.501Z,1.65
2022-08-04T11:46:28.952Z,0.60
2022-08-04T11:49:16.169Z,1.48
2022-08-04T11:52:01.207Z,1.83
2022-08-04T11:54:45.897Z,1.90
2022-08-04T11:57:36.711Z,1.70
2022-08-04T12:00:20.795Z,1.65
2022-08-04T12:03:13.496Z,1.65
2022-08-04T12:06:00.163Z,2.08
2022-08-04T12:08:51.068Z,1.90
2022-08-04T12:11:43.952Z,2.05
2022-08-04T12:14:29.072Z,1.77
2022-08-04T12:17:12.428Z,1.92
2022-08-04T12:20:03.729Z,1.75
2022-08-04T12:22:48.862Z,1.75
2022-08-04T12:25:33.976Z,1.90
2022-08-04T12:28:20.228Z,1.73
2022-08-04T12:31:13.847Z,1.92
2022-08-04T12:34:18.001Z,1.70
2022-08-04T12:37:03.574Z,1.58
2022-08-04T12:40:27.309Z,1.50
2022-08-04T12:42:59.856Z,1.48
2022-08-04T12:45:48.729Z,1.52
2022-08-04T12:48:32.023Z,1.70
2022-08-04T12:51:55.966Z,1.35
2022-08-04T12:54:28.635Z,1.65
2022-08-04T12:57:13.207Z,1.60
2022-08-04T12:59:58.186Z,1.55
2022-08-04T13:02:44.299Z,1.50
2022-08-04T13:05:30.051Z,1.58
2022-08-04T13:08:13.531Z,1.25
2022-08-04T13:10:59.703Z,1.25
2022-08-04T13:13:44.065Z,1.67
2022-08-04T13:16:30.722Z,1.50
2022-08-04T13:19:16.496Z,1.65
2022-08-04T13:22:02.892Z,1.50
2022-08-04T13:25:17.854Z,1.60
2022-08-04T13:27:55.521Z,0.80
2022-08-04T13:30:40.570Z,0.30
2022-08-04T13:33:24.643Z,0.30
2022-08-04T13:36:12.029Z,0.22
2022-08-04T13:38:56.358Z,0.20
2022-08-04T13:41:41.042Z,0.30
2022-08-04T13:44:29.593Z,0.20
2022-08-04T13:47:15.378Z,0.32
2022-08-04T13:50:11.208Z,0.30
2022-08-04T13:52:56.485Z,0.20
2022-08-04T13:55:40.311Z,0.20
2022-08-04T13:58:24.380Z,0.20
2022-08-04T14:01:11.858Z,0.30
2022-08-04T14:03:58.386Z,0.20
2022-08-04T14:06:45.761Z,0.15
2022-08-04T14:09:35.445Z,0.30
2022-08-04T14:12:37.397Z,0.30
2022-08-04T14:16:01.751Z,0.30
2022-08-04T14:18:34.794Z,0.20
2022-08-04T14:21:18.037Z,0.20
2022-08-04T14:24:01.378Z,0.20
2022-08-04T14:26:45.410Z,0.30
2022-08-04T14:29:36.921Z,0.20
2022-08-04T14:32:25.939Z,0.20
2022-08-04T14:35:11.833Z,0.30
2022-08-04T14:37:55.211Z,0.20
2022-08-04T14:40:38.934Z,0.10
2022-08-04T14:43:22.963Z,0.20
2022-08-04T14:46:10.049Z,0.17
2022-08-04T14:49:09.996Z,0.20
2022-08-04T14:51:55.087Z,0.15
2022-08-04T14:54:37.855Z,0.20
2022-08-04T14:57:20.821Z,0.15
2022-08-04T15:00:10.224Z,0.20
2022-08-04T15:02:54.310Z,0.20
2022-08-04T15:06:02.614Z,0.20
2022-08-04T15:08:43.292Z,0.13
2022-08-04T15:11:30.099Z,0.20
2022-08-04T15:14:16.384Z,0.15
2022-08-04T15:17:29.433Z,0.15
2022-08-04T15:20:13.634Z,0.17
2022-08-04T15:22:56.667Z,0.20
2022-08-04T15:25:40.917Z,0.30
2022-08-04T15:28:26.250Z,0.22
2022-08-04T15:32:07.044Z,0.25
2022-08-04T15:34:16.973Z,0.77
2022-08-04T15:37:04.336Z,0.88
2022-08-04T15:39:50.694Z,1.40
2022-08-04T15:42:35.560Z,1.00
2022-08-04T15:46:36.981Z,1.80
2022-08-04T15:48:30.763Z,1.80
2022-08-04T15:51:28.417Z,1.50
2022-08-04T15:54:27.579Z,1.48
2022-08-04T15:57:13.363Z,1.80
2022-08-04T15:59:57.941Z,1.60
2022-08-04T16:02:44.337Z,2.10
2022-08-04T16:05:42.679Z,1.60
2022-08-04T16:08:26.995Z,1.48
2022-08-04T16:11:35.060Z,1.42
2022-08-04T16:14:19.311Z,1.60
2022-08-04T16:17:15.364Z,1.70
2022-08-04T16:20:03.255Z,1.38
2022-08-04T16:22:51.515Z,1.63
2022-08-04T16:25:46.232Z,1.65
2022-08-04T16:28:40.416Z,1.63
2022-08-04T16:31:24.734Z,1.70
2022-08-04T16:34:53.906Z,1.85
2022-08-04T16:37:15.147Z,1.70
2022-08-04T16:40:16.772Z,1.65
2022-08-04T16:43:00.303Z,1.40
2022-08-04T16:45:44.590Z,1.55
2022-08-04T16:48:29.496Z,1.42
2022-08-04T16:51:14.528Z,1.65
2022-08-04T16:54:04.999Z,1.52
2022-08-04T16:56:48.482Z,1.58
2022-08-04T16:59:31.233Z,1.90
2022-08-04T17:02:14.287Z,1.73
2022-08-04T17:05:07.322Z,1.50
2022-08-04T17:08:02.424Z,1.73
2022-08-04T17:10:50.406Z,1.83
2022-08-04T17:14:03.235Z,2.13
2022-08-04T17:16:37.547Z,1.90
2022-08-04T17:19:25.752Z,2.28
2022-08-04T17:22:10.805Z,1.70
2022-08-04T17:24:53.479Z,1.77
2022-08-04T17:28:09.209Z,2.08
2022-08-04T17:30:39.416Z,1.90
2022-08-04T17:33:55.091Z,2.00
2022-08-04T17:36:38.235Z,1.98
2022-08-04T17:39:25.350Z,2.00
2022-08-04T17:42:08.352Z,1.70
2022-08-04T17:44:51.052Z,2.15
2022-08-04T17:47:38.203Z,2.42
2022-08-04T17:50:27.462Z,2.10
2022-08-04T17:53:12.030Z,1.75
2022-08-04T17:55:57.055Z,1.95
2022-08-04T17:58:39.821Z,2.35
2022-08-04T18:01:52.192Z,1.98
2022-08-04T18:04:38.409Z,1.83
2022-08-04T18:08:45.774Z,2.00
2022-08-04T18:10:43.228Z,1.90
2022-08-04T18:13:42.870Z,1.95
2022-08-04T18:16:27.238Z,2.15
2022-08-04T18:19:10.661Z,1.88
2022-08-04T18:21:59.264Z,1.83
2022-08-04T18:24:55.654Z,1.80
2022-08-04T18:27:48.331Z,1.88
2022-08-04T18:30:53.962Z,1.20
2022-08-04T18:33:40.896Z,1.75
2022-08-04T18:36:36.909Z,1.63
2022-08-04T18:40:10.690Z,1.35
2022-08-04T18:42:28.060Z,1.77
2022-08-04T18:45:20.198Z,1.40
2022-08-04T18:48:14.693Z,1.80
2022-08-04T18:51:09.249Z,1.90
2022-08-04T18:54:00.695Z,1.83
2022-08-04T18:57:08.593Z,1.75
2022-08-04T18:59:48.346Z,1.85
2022-08-04T19:02:36.930Z,1.73
2022-08-04T19:05:21.540Z,1.23
2022-08-04T19:08:33.860Z,2.00
2022-08-04T19:11:37.287Z,1.60
2022-08-04T19:14:15.041Z,1.60
2022-08-04T19:16:57.975Z,1.60
2022-08-04T19:19:49.636Z,1.67
2022-08-04T19:22:35.790Z,1.67
2022-08-04T19:26:02.938Z,1.50
2022-08-04T19:28:22.027Z,1.33
2022-08-04T19:31:05.265Z,1.60
2022-08-04T19:33:58.616Z,1.17
2022-08-04T19:36:47.351Z,1.45
2022-08-04T19:39:33.745Z,1.92
2022-08-04T19:42:23.119Z,1.55
2022-08-04T19:45:15.342Z,1.50
2022-08-04T19:48:13.047Z,1.40
2022-08-04T19:51:01.398Z,1.48
2022-08-04T19:53:44.757Z,1.30
2022-08-04T19:56:40.971Z,1.38
2022-08-04T19:59:24.083Z,1.35
2022-08-04T20:02:06.957Z,1.40
2022-08-04T20:04:50.025Z,1.80
2022-08-04T20:07:34.815Z,1.60
2022-08-04T20:10:18.007Z,1.33
2022-08-04T20:13:10.461Z,1.55
2022-08-04T20:15:57.275Z,1.70
2022-08-04T20:18:57.037Z,1.50
2022-08-04T20:24:53.366Z,1.80
2022-08-04T20:27:59.488Z,1.50
2022-08-04T20:30:45.739Z,1.80
2022-08-04T20:33:28.741Z,1.70
2022-08-04T20:36:13.260Z,1.70
2022-08-04T20:38:56.211Z,1.40
2022-08-04T20:41:52.676Z,1.90
2022-08-04T20:44:37.724Z,1.65
2022-08-04T20:47:26.907Z,1.60
2022-08-04T20:50:18.035Z,1.88
2022-08-04T20:53:16.567Z,2.22
2022-08-04T20:56:00.107Z,2.00
2022-08-04T20:58:42.864Z,1.85
2022-08-04T21:01:29.603Z,1.90
2022-08-04T21:04:34.486Z,1.70
2022-08-04T21:07:17.879Z,1.77
2022-08-04T21:10:00.646Z,1.67
2022-08-04T21:12:43.477Z,1.90
2022-08-04T21:18:35.580Z,1.80
2022-08-04T21:21:19.753Z,2.08
2022-08-04T21:24:02.548Z,2.33
2022-08-04T21:26:46.343Z,2.20
2022-08-04T21:29:35.108Z,2.22
2022-08-04T21:32:18.130Z,2.42
2022-08-04T21:35:05.375Z,2.78
2022-08-04T21:37:57.731Z,2.75
2022-08-04T21:40:43.728Z,3.33
2022-08-04T21:43:34.425Z,2.90
2022-08-04T21:46:25.941Z,2.65
2022-08-04T21:49:12.963Z,3.33
2022-08-04T21:54:59.806Z,2.90
2022-08-04T21:57:43.469Z,3.03
2022-08-04T22:00:29.495Z,3.22
2022-08-04T22:03:51.572Z,3.38
2022-08-04T22:06:17.335Z,3.38
2022-08-04T22:09:00.420Z,3.47
2022-08-04T22:11:50.284Z,3.85
2022-08-04T22:14:34.762Z,3.90
2022-08-04T22:17:18.316Z,3.00
2022-08-04T22:20:02.099Z,3.72
2022-08-04T22:22:45.056Z,3.83
2022-08-04T22:25:34.126Z,2.90
2022-08-04T22:28:21.943Z,3.75
2022-08-04T22:31:23.347Z,3.75
2022-08-04T22:34:07.360Z,3.42
2022-08-04T22:36:53.547Z,4.03
2022-08-04T22:39:36.699Z,3.72
2022-08-04T22:42:39.312Z,3.80
2022-08-04T22:45:28.781Z,3.80
2022-08-04T22:48:27.232Z,3.83
2022-08-04T22:51:16.307Z,3.88
2022-08-04T22:54:00.306Z,4.22
2022-08-04T22:56:45.712Z,4.18
2022-08-04T22:59:28.553Z,4.30
2022-08-04T23:02:12.706Z,4.50
2022-08-04T23:04:57.455Z,4.72
2022-08-04T23:07:49.179Z,3.80
2022-08-04T23:10:32.459Z,4.68
2022-08-04T23:13:15.885Z,5.00
2022-08-04T23:15:58.738Z,3.90
2022-08-04T23:18:45.226Z,4.47
2022-08-04T23:21:41.100Z,4.10
2022-08-04T23:24:30.241Z,4.00
2022-08-04T23:27:13.071Z,4.43
2022-08-04T23:29:55.790Z,4.32
2022-08-04T23:32:38.531Z,4.28
2022-08-04T23:35:23.266Z,4.30
2022-08-04T23:38:30.690Z,3.90
2022-08-04T23:41:18.694Z,4.57
2022-08-04T23:44:03.147Z,4.07
2022-08-04T23:46:53.330Z,3.78
2022-08-04T23:49:43.975Z,4.22
2022-08-04T23:52:30.261Z,4.05
2022-08-04T23:55:19.025Z,4.63
2022-08-04T23:58:16.875Z,4.20
